createdAt,value
2018-03-18T00:00:06.115Z,77.6
2018-03-18T00:01:07.643Z,78.1
2018-03-18T00:02:09.035Z,78.1
2018-03-18T00:03:10.419Z,77.9
2018-03-18T00:04:11.858Z,78.0
2018-03-18T00:05:13.325Z,77.8
2018-03-18T00:06:14.709Z,78.4
2018-03-18T00:07:16.098Z,78.4
2018-03-18T00:08:17.483Z,78.2
2018-03-18T00:09:18.891Z,78.7
2018-03-18T00:10:20.279Z,79.0
2018-03-18T00:11:21.655Z,78.9
2018-03-18T00:12:23.045Z,79.1
2018-03-18T00:13:24.430Z,78.7
2018-03-18T00:14:25.846Z,78.7
2018-03-18T00:15:27.233Z,78.4
2018-03-18T00:16:28.618Z,78.6
2018-03-18T00:17:30.005Z,78.5
2018-03-18T00:18:31.387Z,78.3
2018-03-18T00:19:32.791Z,78.0
2018-03-18T00:20:34.177Z,78.1
2018-03-18T00:21:35.580Z,78.3
2018-03-18T00:22:37.006Z,78.8
2018-03-18T00:23:38.431Z,78.7
2018-03-18T00:24:39.885Z,78.7
2018-03-18T00:25:41.267Z,78.7
2018-03-18T00:26:42.653Z,78.4
2018-03-18T00:27:44.147Z,78.7
2018-03-18T00:28:45.534Z,79.0
2018-03-18T00:29:47.011Z,79.0
2018-03-18T00:30:48.426Z,78.6
2018-03-18T00:31:49.824Z,78.9
2018-03-18T00:32:51.208Z,78.5
2018-03-18T00:33:52.588Z,79.0
2018-03-18T00:34:53.975Z,78.4
2018-03-18T00:35:55.391Z,78.3
2018-03-18T00:36:56.761Z,78.4
2018-03-18T00:37:58.144Z,78.8
2018-03-18T00:38:59.531Z,78.7
2018-03-18T00:40:00.915Z,78.6
2018-03-18T00:41:02.314Z,78.9
2018-03-18T00:42:03.699Z,79.3
2018-03-18T00:43:05.102Z,78.9
2018-03-18T00:44:06.475Z,79.0
2018-03-18T00:45:07.860Z,78.9
2018-03-18T00:46:09.252Z,78.7
2018-03-18T00:47:10.635Z,78.3
2018-03-18T00:48:12.019Z,78.1
2018-03-18T00:49:13.424Z,78.6
2018-03-18T00:50:14.819Z,78.9
2018-03-18T00:51:16.205Z,79.1
2018-03-18T00:52:17.587Z,79.3
2018-03-18T00:53:18.974Z,79.2
2018-03-18T00:54:20.415Z,79.1
2018-03-18T00:55:21.764Z,79.6
2018-03-18T00:56:23.172Z,79.2
2018-03-18T00:57:24.552Z,79.4
2018-03-18T00:58:25.941Z,79.2
2018-03-18T00:59:27.320Z,78.9
2018-03-18T01:00:28.725Z,78.7
2018-03-18T01:01:30.095Z,78.9
2018-03-18T01:02:31.479Z,78.7
2018-03-18T01:03:32.854Z,78.3
2018-03-18T01:04:34.236Z,78.4
2018-03-18T01:05:35.640Z,78.5
2018-03-18T01:06:37.022Z,78.3
2018-03-18T01:07:38.421Z,78.2
2018-03-18T01:08:39.796Z,78.2
2018-03-18T01:09:41.175Z,78.3
2018-03-18T01:10:42.556Z,78.5
2018-03-18T01:11:43.943Z,78.0
2018-03-18T01:12:45.321Z,78.1
2018-03-18T01:13:46.700Z,78.0
2018-03-18T01:14:48.085Z,77.6
2018-03-18T01:15:49.460Z,77.4
2018-03-18T01:16:50.837Z,77.8
2018-03-18T01:17:52.253Z,78.6
2018-03-18T01:18:53.593Z,78.3
2018-03-18T01:19:54.979Z,78.3
2018-03-18T01:20:56.362Z,78.3
2018-03-18T01:21:57.742Z,77.9
2018-03-18T01:22:59.122Z,77.9
2018-03-18T01:24:00.526Z,77.9
2018-03-18T01:25:01.905Z,78.1
2018-03-18T01:26:03.286Z,78.3
2018-03-18T01:27:04.669Z,78.4
2018-03-18T01:28:06.077Z,78.3
2018-03-18T01:29:07.482Z,78.5
2018-03-18T01:30:08.859Z,78.2
2018-03-18T01:31:10.237Z,78.3
2018-03-18T01:32:11.616Z,78.3
2018-03-18T01:33:12.994Z,78.2
2018-03-18T01:34:14.374Z,78.3
2018-03-18T01:35:15.757Z,78.2
2018-03-18T01:36:17.134Z,78.3
2018-03-18T01:37:18.512Z,78.1
2018-03-18T01:38:19.893Z,78.2
2018-03-18T01:39:21.284Z,78.3
2018-03-18T01:40:22.662Z,78.1
2018-03-18T01:41:24.130Z,78.3
2018-03-18T01:42:25.519Z,78.4
2018-03-18T01:43:26.899Z,78.3
2018-03-18T01:44:28.281Z,79.2
2018-03-18T01:45:29.659Z,78.4
2018-03-18T01:46:31.067Z,78.3
2018-03-18T01:47:32.446Z,78.2
2018-03-18T01:48:33.870Z,78.4
2018-03-18T01:49:35.233Z,79.1
2018-03-18T01:50:36.612Z,79.3
2018-03-18T01:51:37.992Z,78.7
2018-03-18T01:52:39.373Z,78.5
2018-03-18T01:53:40.769Z,78.6
2018-03-18T01:54:42.148Z,78.7
2018-03-18T01:55:43.536Z,78.4
2018-03-18T01:56:44.922Z,78.2
2018-03-18T01:57:46.303Z,78.3
2018-03-18T01:58:47.681Z,78.4
2018-03-18T01:59:49.052Z,78.7
2018-03-18T02:00:50.434Z,78.8
2018-03-18T02:01:51.813Z,78.5
2018-03-18T02:02:53.192Z,78.7
2018-03-18T02:03:54.575Z,79.3
2018-03-18T02:04:55.976Z,79.1
2018-03-18T02:05:57.351Z,79.1
2018-03-18T02:06:58.731Z,79.1
2018-03-18T02:08:00.107Z,79.0
2018-03-18T02:09:01.488Z,79.1
2018-03-18T02:10:02.898Z,78.7
2018-03-18T02:11:04.271Z,78.7
2018-03-18T02:12:05.652Z,78.8
2018-03-18T02:13:07.030Z,78.4
2018-03-18T02:14:08.407Z,78.9
2018-03-18T02:15:09.785Z,78.8
2018-03-18T02:16:11.164Z,79.0
2018-03-18T02:17:12.543Z,78.9
2018-03-18T02:18:13.925Z,78.7
2018-03-18T02:19:15.308Z,78.3
2018-03-18T02:20:16.688Z,78.3
2018-03-18T02:21:18.069Z,78.5
2018-03-18T02:22:19.461Z,79.0
2018-03-18T02:23:20.824Z,79.4
2018-03-18T02:24:22.203Z,79.2
2018-03-18T02:25:23.588Z,78.6
2018-03-18T02:26:24.968Z,79.1
2018-03-18T02:27:26.346Z,79.0
2018-03-18T02:28:27.783Z,78.7
2018-03-18T02:29:29.161Z,79.0
2018-03-18T02:30:30.539Z,79.0
2018-03-18T02:31:31.925Z,78.6
2018-03-18T02:32:33.302Z,78.8
2018-03-18T02:33:34.683Z,78.9
2018-03-18T02:34:36.062Z,78.7
2018-03-18T02:35:37.443Z,78.7
2018-03-18T02:36:38.822Z,78.3
2018-03-18T02:37:40.220Z,78.1
2018-03-18T02:38:41.601Z,78.3
2018-03-18T02:39:42.979Z,78.4
2018-03-18T02:40:44.384Z,78.6
2018-03-18T02:41:45.736Z,78.0
2018-03-18T02:42:47.114Z,78.0
2018-03-18T02:43:48.495Z,78.7
2018-03-18T02:44:49.873Z,78.1
2018-03-18T02:45:51.253Z,78.0
2018-03-18T02:46:52.636Z,78.2
2018-03-18T02:47:54.014Z,78.1
2018-03-18T02:48:55.396Z,78.0
2018-03-18T02:49:56.807Z,78.4
2018-03-18T02:50:58.166Z,78.1
2018-03-18T02:51:59.540Z,78.6
2018-03-18T02:53:00.938Z,78.3
2018-03-18T02:54:02.326Z,78.4
2018-03-18T02:55:03.709Z,78.4
2018-03-18T02:56:05.084Z,78.4
2018-03-18T02:57:06.461Z,78.3
2018-03-18T02:58:07.850Z,78.7
2018-03-18T02:59:09.238Z,78.4
2018-03-18T03:00:10.625Z,78.7
2018-03-18T03:01:12.002Z,78.3
2018-03-18T03:02:13.384Z,77.8
2018-03-18T03:03:14.761Z,77.9
2018-03-18T03:04:16.140Z,78.3
2018-03-18T03:05:17.521Z,78.1
2018-03-18T03:06:18.920Z,78.3
2018-03-18T03:07:20.286Z,78.1
2018-03-18T03:08:21.667Z,77.9
2018-03-18T03:09:23.056Z,77.7
2018-03-18T03:10:24.446Z,78.0
2018-03-18T03:11:25.851Z,78.2
2018-03-18T03:12:27.232Z,77.9
2018-03-18T03:13:28.611Z,78.2
2018-03-18T03:14:29.994Z,78.5
2018-03-18T03:15:31.372Z,78.4
2018-03-18T03:16:32.776Z,78.3
2018-03-18T03:17:34.136Z,78.5
2018-03-18T03:18:35.583Z,78.8
2018-03-18T03:19:37.031Z,79.1
2018-03-18T03:20:38.412Z,78.9
2018-03-18T03:21:39.791Z,79.8
2018-03-18T03:22:41.172Z,79.0
2018-03-18T03:23:42.553Z,78.2
2018-03-18T03:24:43.949Z,78.7
2018-03-18T03:25:45.319Z,78.7
2018-03-18T03:26:46.698Z,79.0
2018-03-18T03:27:48.078Z,78.3
2018-03-18T03:28:49.463Z,78.5
2018-03-18T03:29:50.840Z,78.2
2018-03-18T03:30:52.226Z,78.6
2018-03-18T03:31:53.606Z,78.4
2018-03-18T03:32:54.984Z,78.3
2018-03-18T03:33:56.365Z,78.3
2018-03-18T03:34:57.752Z,78.2
2018-03-18T03:35:59.125Z,78.7
2018-03-18T03:37:00.506Z,78.2
2018-03-18T03:38:01.902Z,77.8
2018-03-18T03:39:03.280Z,78.0
2018-03-18T03:40:04.704Z,77.6
2018-03-18T03:41:06.039Z,78.0
2018-03-18T03:42:07.417Z,77.8
2018-03-18T03:43:08.807Z,78.1
2018-03-18T03:44:10.187Z,78.1
2018-03-18T03:45:11.570Z,78.0
2018-03-18T03:46:12.947Z,77.6
2018-03-18T03:47:14.323Z,77.8
2018-03-18T03:48:15.702Z,77.9
2018-03-18T03:49:17.085Z,78.0
2018-03-18T03:50:18.462Z,78.0
2018-03-18T03:51:19.844Z,78.3
2018-03-18T03:52:21.228Z,78.4
2018-03-18T03:53:22.613Z,78.3
2018-03-18T03:54:23.994Z,77.7
2018-03-18T03:55:25.375Z,77.8
2018-03-18T03:56:26.757Z,78.3
2018-03-18T03:57:28.137Z,77.4
2018-03-18T03:58:29.514Z,78.0
2018-03-18T03:59:30.896Z,78.4
2018-03-18T04:00:32.289Z,78.5
2018-03-18T04:01:33.670Z,77.8
2018-03-18T04:02:35.048Z,78.1
2018-03-18T04:03:36.426Z,78.0
2018-03-18T04:04:37.804Z,78.0
2018-03-18T04:05:39.185Z,77.9
2018-03-18T04:06:40.567Z,78.3
2018-03-18T04:07:41.942Z,78.3
2018-03-18T04:08:43.392Z,78.0
2018-03-18T04:09:44.798Z,78.2
2018-03-18T04:10:46.183Z,77.6
2018-03-18T04:11:47.568Z,78.2
2018-03-18T04:12:48.944Z,78.0
2018-03-18T04:13:50.326Z,78.0
2018-03-18T04:14:51.711Z,78.0
2018-03-18T04:15:53.093Z,77.7
2018-03-18T04:16:54.470Z,77.8
2018-03-18T04:17:55.851Z,77.7
2018-03-18T04:18:57.232Z,77.9
2018-03-18T04:19:58.618Z,78.2
2018-03-18T04:21:00.013Z,77.6
2018-03-18T04:22:01.392Z,77.7
2018-03-18T04:23:02.791Z,77.8
2018-03-18T04:24:04.172Z,78.0
2018-03-18T04:25:05.553Z,78.3
2018-03-18T04:26:06.940Z,78.1
2018-03-18T04:27:08.313Z,78.1
2018-03-18T04:28:09.696Z,78.0
2018-03-18T04:29:11.080Z,78.3
2018-03-18T04:30:12.451Z,78.0
2018-03-18T04:31:13.829Z,77.8
2018-03-18T04:32:15.211Z,77.9
2018-03-18T04:33:16.593Z,78.0
2018-03-18T04:34:17.972Z,78.3
2018-03-18T04:35:19.356Z,78.4
2018-03-18T04:36:20.741Z,78.4
2018-03-18T04:37:22.118Z,78.3
2018-03-18T04:38:23.499Z,78.2
2018-03-18T04:39:24.882Z,77.8
2018-03-18T04:40:26.260Z,78.1
2018-03-18T04:41:27.646Z,78.3
2018-03-18T04:42:29.027Z,78.0
2018-03-18T04:43:30.406Z,78.3
2018-03-18T04:44:31.792Z,78.2
2018-03-18T04:45:33.172Z,77.9
2018-03-18T04:46:34.552Z,77.9
2018-03-18T04:47:35.933Z,78.2
2018-03-18T04:48:37.315Z,77.6
2018-03-18T04:49:38.702Z,77.8
2018-03-18T04:50:40.099Z,77.7
2018-03-18T04:51:41.474Z,77.9
2018-03-18T04:52:42.856Z,77.6
2018-03-18T04:53:44.236Z,76.9
2018-03-18T04:54:45.618Z,77.2
2018-03-18T04:55:46.998Z,77.6
2018-03-18T04:56:48.382Z,77.0
2018-03-18T04:57:49.772Z,76.8
2018-03-18T04:58:51.237Z,76.4
2018-03-18T04:59:52.623Z,76.0
2018-03-18T05:00:54.013Z,76.0
2018-03-18T05:01:55.394Z,75.9
2018-03-18T05:02:56.776Z,75.8
2018-03-18T05:03:58.170Z,76.6
2018-03-18T05:04:59.549Z,76.7
2018-03-18T05:06:00.962Z,76.2
2018-03-18T05:07:02.360Z,76.0
2018-03-18T05:08:03.731Z,75.9
2018-03-18T05:09:05.118Z,75.5
2018-03-18T05:10:06.501Z,75.4
2018-03-18T05:11:07.888Z,75.5
2018-03-18T05:12:09.268Z,76.0
2018-03-18T05:13:10.651Z,75.8
2018-03-18T05:14:12.038Z,76.2
2018-03-18T05:15:13.420Z,75.6
2018-03-18T05:16:14.808Z,75.8
2018-03-18T05:17:16.194Z,76.2
2018-03-18T05:18:17.581Z,75.9
2018-03-18T05:19:18.961Z,75.5
2018-03-18T05:20:20.351Z,75.8
2018-03-18T05:21:21.735Z,75.9
2018-03-18T05:22:23.121Z,76.1
2018-03-18T05:23:24.549Z,76.6
2018-03-18T05:24:25.884Z,76.7
2018-03-18T05:25:27.272Z,77.8
2018-03-18T05:26:28.656Z,78.4
2018-03-18T05:27:30.046Z,79.6
2018-03-18T05:28:31.432Z,79.7
2018-03-18T05:29:32.812Z,80.3
2018-03-18T05:30:34.197Z,80.7
2018-03-18T05:31:35.580Z,80.5
2018-03-18T05:32:36.979Z,81.0
2018-03-18T05:33:38.370Z,80.8
2018-03-18T05:34:39.751Z,81.3
2018-03-18T05:35:41.137Z,80.6
2018-03-18T05:36:42.526Z,80.9
2018-03-18T05:37:43.908Z,80.9
2018-03-18T05:38:45.298Z,80.9
2018-03-18T05:39:46.685Z,81.5
2018-03-18T05:40:48.077Z,81.7
2018-03-18T05:41:49.464Z,83.1
2018-03-18T05:42:50.854Z,83.5
2018-03-18T05:43:52.234Z,83.7
2018-03-18T05:44:53.618Z,84.2
2018-03-18T05:45:55.009Z,84.6
2018-03-18T05:46:56.395Z,84.7
2018-03-18T05:47:57.939Z,85.2
2018-03-18T05:48:59.323Z,85.3
2018-03-18T05:50:00.719Z,84.9
2018-03-18T05:51:02.133Z,85.6
2018-03-18T05:52:03.518Z,85.6
2018-03-18T05:53:04.902Z,86.1
2018-03-18T05:54:06.290Z,86.3
2018-03-18T05:55:07.676Z,87.1
2018-03-18T05:56:09.060Z,87.3
2018-03-18T05:57:10.454Z,87.5
2018-03-18T05:58:11.839Z,87.7
2018-03-18T05:59:13.252Z,88.2
2018-03-18T06:00:14.638Z,87.9
2018-03-18T06:01:16.026Z,87.2
2018-03-18T06:02:17.425Z,88.3
2018-03-18T06:03:18.824Z,88.3
2018-03-18T06:04:20.226Z,88.5
2018-03-18T06:05:21.614Z,88.5
2018-03-18T06:06:23.000Z,88.1
2018-03-18T06:07:24.411Z,88.2
2018-03-18T06:08:25.797Z,88.6
2018-03-18T06:09:27.188Z,88.5
2018-03-18T06:10:28.574Z,88.3
2018-03-18T06:11:29.966Z,88.7
2018-03-18T06:12:31.422Z,88.7
2018-03-18T06:13:32.782Z,88.5
2018-03-18T06:14:34.171Z,88.6
2018-03-18T06:15:35.566Z,89.2
2018-03-18T06:16:36.950Z,89.2
2018-03-18T06:17:38.339Z,88.6
2018-03-18T06:18:39.725Z,89.1
2018-03-18T06:19:41.113Z,88.9
2018-03-18T06:20:42.500Z,88.6
2018-03-18T06:21:43.888Z,88.7
2018-03-18T06:22:45.279Z,88.5
2018-03-18T06:23:46.665Z,88.1
2018-03-18T06:24:48.095Z,88.1
2018-03-18T06:25:49.452Z,87.8
2018-03-18T06:26:50.838Z,88.2
2018-03-18T06:27:52.225Z,88.5
2018-03-18T06:28:53.632Z,88.6
2018-03-18T06:29:55.032Z,88.8
2018-03-18T06:30:56.455Z,88.5
2018-03-18T06:31:57.842Z,88.4
2018-03-18T06:32:59.232Z,88.2
2018-03-18T06:34:00.619Z,88.5
2018-03-18T06:35:02.004Z,88.3
2018-03-18T06:36:03.393Z,87.7
2018-03-18T06:37:04.849Z,87.8
2018-03-18T06:38:06.295Z,88.1
2018-03-18T06:39:07.678Z,88.1
2018-03-18T06:40:09.067Z,88.1
2018-03-18T06:41:10.476Z,88.0
2018-03-18T06:42:11.853Z,87.7
2018-03-18T06:43:13.245Z,87.3
2018-03-18T06:44:14.635Z,87.5
2018-03-18T06:45:16.029Z,86.9
2018-03-18T06:46:17.422Z,86.6
2018-03-18T06:47:18.805Z,86.9
2018-03-18T06:48:20.216Z,86.7
2018-03-18T06:49:21.600Z,86.3
2018-03-18T06:50:22.989Z,86.1
2018-03-18T06:51:24.377Z,86.2
2018-03-18T06:52:25.763Z,86.1
2018-03-18T06:53:27.161Z,86.2
2018-03-18T06:54:28.551Z,86.1
2018-03-18T06:55:29.990Z,86.1
2018-03-18T06:56:31.378Z,85.6
2018-03-18T06:57:32.782Z,85.7
2018-03-18T06:58:34.188Z,86.0
2018-03-18T06:59:35.586Z,85.2
2018-03-18T07:00:36.970Z,84.9
2018-03-18T07:01:38.370Z,85.1
2018-03-18T07:02:39.748Z,85.1
2018-03-18T07:03:41.132Z,85.0
2018-03-18T07:04:42.517Z,85.4
2018-03-18T07:05:43.909Z,85.1
2018-03-18T07:06:45.301Z,85.2
2018-03-18T07:07:46.715Z,85.2
2018-03-18T07:08:48.105Z,85.4
2018-03-18T07:09:49.490Z,85.6
2018-03-18T07:10:50.883Z,86.0
2018-03-18T07:11:52.286Z,86.4
2018-03-18T07:12:53.675Z,85.9
2018-03-18T07:13:55.060Z,85.9
2018-03-18T07:14:56.446Z,86.4
2018-03-18T07:15:57.849Z,86.1
2018-03-18T07:16:59.236Z,86.2
2018-03-18T07:18:00.644Z,85.6
2018-03-18T07:19:02.033Z,85.3
2018-03-18T07:20:03.465Z,85.1
2018-03-18T07:21:04.836Z,85.5
2018-03-18T07:22:06.216Z,85.1
2018-03-18T07:23:07.611Z,84.6
2018-03-18T07:24:08.996Z,84.6
2018-03-18T07:25:10.392Z,84.8
2018-03-18T07:26:11.861Z,84.9
2018-03-18T07:27:13.284Z,85.2
2018-03-18T07:28:14.671Z,85.3
2018-03-18T07:29:16.069Z,84.5
2018-03-18T07:30:17.456Z,84.7
2018-03-18T07:31:18.844Z,84.7
2018-03-18T07:32:20.240Z,84.4
2018-03-18T07:33:21.640Z,84.5
2018-03-18T07:34:23.047Z,85.2
2018-03-18T07:35:24.437Z,84.7
2018-03-18T07:36:25.821Z,85.4
2018-03-18T07:37:27.209Z,85.8
2018-03-18T07:38:28.599Z,85.2
2018-03-18T07:39:29.985Z,84.9
2018-03-18T07:40:31.378Z,84.6
2018-03-18T07:41:32.790Z,84.4
2018-03-18T07:42:34.171Z,84.1
2018-03-18T07:43:35.568Z,84.6
2018-03-18T07:44:36.964Z,84.9
2018-03-18T07:45:38.332Z,84.4
2018-03-18T07:46:39.717Z,83.6
2018-03-18T07:47:41.104Z,83.6
2018-03-18T07:48:42.492Z,83.2
2018-03-18T07:49:43.877Z,83.4
2018-03-18T07:50:45.259Z,83.4
2018-03-18T07:51:46.642Z,83.4
2018-03-18T07:52:48.029Z,83.2
2018-03-18T07:53:49.416Z,83.2
2018-03-18T07:54:50.801Z,83.7
2018-03-18T07:55:52.190Z,83.4
2018-03-18T07:56:53.575Z,83.3
2018-03-18T07:57:54.961Z,82.1
2018-03-18T07:58:56.359Z,81.8
2018-03-18T07:59:57.743Z,82.1
2018-03-18T08:00:59.131Z,81.2
2018-03-18T08:02:00.568Z,80.5
2018-03-18T08:03:01.898Z,80.7
2018-03-18T08:04:03.284Z,79.7
2018-03-18T08:05:04.674Z,80.1
2018-03-18T08:06:06.057Z,79.8
2018-03-18T08:07:07.450Z,80.2
2018-03-18T08:08:08.838Z,79.9
2018-03-18T08:09:10.245Z,79.8
2018-03-18T08:10:11.628Z,79.5
2018-03-18T08:11:13.017Z,79.6
2018-03-18T08:12:14.403Z,79.9
2018-03-18T08:13:15.786Z,79.6
2018-03-18T08:14:17.172Z,80.0
2018-03-18T08:15:18.687Z,80.0
2018-03-18T08:16:20.155Z,79.7
2018-03-18T08:17:21.541Z,79.6
2018-03-18T08:18:22.926Z,79.8
2018-03-18T08:19:24.312Z,79.6
2018-03-18T08:20:25.698Z,80.0
2018-03-18T08:21:27.091Z,79.9
2018-03-18T08:22:28.476Z,79.8
2018-03-18T08:23:29.871Z,79.8
2018-03-18T08:24:31.259Z,80.7
2018-03-18T08:25:32.644Z,80.5
2018-03-18T08:26:34.028Z,80.0
2018-03-18T08:27:35.410Z,79.2
2018-03-18T08:28:36.793Z,78.6
2018-03-18T08:29:38.182Z,78.5
2018-03-18T08:30:39.565Z,78.0
2018-03-18T08:31:40.953Z,78.4
2018-03-18T08:32:42.337Z,78.9
2018-03-18T08:33:43.722Z,78.2
2018-03-18T08:34:45.105Z,78.0
2018-03-18T08:35:46.490Z,77.9
2018-03-18T08:36:47.885Z,78.5
2018-03-18T08:37:49.276Z,78.3
2018-03-18T08:38:50.675Z,78.1
2018-03-18T08:39:52.062Z,79.2
2018-03-18T08:40:53.448Z,81.5
2018-03-18T08:41:54.837Z,82.7
2018-03-18T08:42:56.225Z,81.0
2018-03-18T08:43:57.610Z,78.4
2018-03-18T08:44:59.000Z,78.0
2018-03-18T08:46:00.388Z,78.0
2018-03-18T08:47:01.787Z,77.7
2018-03-18T08:48:03.171Z,78.5
2018-03-18T08:49:04.558Z,78.6
2018-03-18T08:50:05.943Z,78.0
2018-03-18T08:51:07.334Z,78.0
2018-03-18T08:52:08.869Z,78.0
2018-03-18T08:53:10.241Z,78.0
2018-03-18T08:54:11.626Z,76.8
2018-03-18T08:55:13.016Z,76.5
2018-03-18T08:56:14.401Z,75.6
2018-03-18T08:57:15.793Z,75.7
2018-03-18T08:58:17.173Z,75.5
2018-03-18T08:59:18.576Z,75.5
2018-03-18T09:00:19.963Z,76.2
2018-03-18T09:01:21.890Z,76.1
2018-03-18T09:02:23.224Z,76.2
2018-03-18T09:03:24.670Z,76.6
2018-03-18T09:04:26.081Z,76.3
2018-03-18T09:05:27.465Z,76.0
2018-03-18T09:06:28.867Z,76.9
2018-03-18T09:07:30.258Z,76.7
2018-03-18T09:08:31.646Z,74.9
2018-03-18T09:09:33.033Z,73.3
2018-03-18T09:10:34.507Z,73.4
2018-03-18T09:11:35.909Z,75.3
2018-03-18T09:12:37.306Z,74.2
2018-03-18T09:13:38.699Z,74.5
2018-03-18T09:14:40.087Z,73.3
2018-03-18T09:15:41.474Z,73.2
2018-03-18T09:16:42.861Z,73.7
2018-03-18T09:17:44.260Z,72.0
2018-03-18T09:18:45.633Z,72.9
2018-03-18T09:19:47.025Z,72.2
2018-03-18T09:20:48.414Z,71.8
2018-03-18T09:21:49.820Z,71.3
2018-03-18T09:22:51.203Z,71.9
2018-03-18T09:23:52.593Z,72.3
2018-03-18T09:24:53.979Z,71.5
2018-03-18T09:25:55.436Z,71.6
2018-03-18T09:26:56.787Z,70.9
2018-03-18T09:27:58.174Z,71.5
2018-03-18T09:28:59.563Z,71.7
2018-03-18T09:30:00.943Z,71.8
2018-03-18T09:31:02.357Z,72.1
2018-03-18T09:32:03.744Z,71.9
2018-03-18T09:33:05.128Z,71.7
2018-03-18T09:34:06.514Z,71.7
2018-03-18T09:35:07.902Z,70.9
2018-03-18T09:36:09.295Z,70.8
2018-03-18T09:37:10.687Z,70.4
2018-03-18T09:38:12.069Z,71.0
2018-03-18T09:39:13.456Z,71.4
2018-03-18T09:40:14.864Z,70.2
2018-03-18T09:41:16.249Z,69.6
2018-03-18T09:42:17.637Z,69.5
2018-03-18T09:43:19.025Z,69.7
2018-03-18T09:44:20.416Z,69.7
2018-03-18T09:45:21.809Z,70.3
2018-03-18T09:46:23.181Z,70.2
2018-03-18T09:47:24.575Z,70.1
2018-03-18T09:48:25.966Z,69.4
2018-03-18T09:49:27.364Z,68.8
2018-03-18T09:50:28.812Z,69.3
2018-03-18T09:51:30.202Z,69.4
2018-03-18T09:52:32.595Z,69.0
2018-03-18T09:53:33.984Z,69.0
2018-03-18T09:54:35.442Z,69.5
2018-03-18T09:55:36.863Z,69.3
2018-03-18T09:56:38.252Z,69.8
2018-03-18T09:57:39.655Z,69.0
2018-03-18T09:58:41.036Z,68.6
2018-03-18T09:59:42.423Z,69.5
2018-03-18T10:00:43.814Z,68.3
2018-03-18T10:01:45.239Z,69.4
2018-03-18T10:02:46.630Z,69.4
2018-03-18T10:03:48.016Z,69.0
2018-03-18T10:04:49.411Z,68.9
2018-03-18T10:05:50.792Z,68.7
2018-03-18T10:06:52.181Z,68.5
2018-03-18T10:07:53.568Z,69.2
2018-03-18T10:08:54.961Z,70.6
2018-03-18T10:09:56.345Z,71.9
2018-03-18T10:10:57.742Z,71.6
2018-03-18T10:11:59.131Z,70.9
2018-03-18T10:13:00.526Z,70.9
2018-03-18T10:14:01.941Z,70.5
2018-03-18T10:15:03.305Z,70.2
2018-03-18T10:16:04.684Z,70.6
2018-03-18T10:17:06.079Z,70.7
2018-03-18T10:18:07.472Z,69.9
2018-03-18T10:19:08.862Z,70.3
2018-03-18T10:20:10.324Z,70.0
2018-03-18T10:21:11.659Z,71.0
2018-03-18T10:22:13.046Z,71.3
2018-03-18T10:23:14.435Z,70.8
2018-03-18T10:24:15.821Z,70.1
2018-03-18T10:25:17.207Z,70.8
2018-03-18T10:26:18.679Z,70.4
2018-03-18T10:27:20.076Z,70.6
2018-03-18T10:28:21.476Z,70.6
2018-03-18T10:29:22.868Z,70.2
2018-03-18T10:30:24.252Z,70.2
2018-03-18T10:31:25.644Z,69.8
2018-03-18T10:32:27.037Z,69.8
2018-03-18T10:33:28.470Z,69.5
2018-03-18T10:34:29.857Z,70.1
2018-03-18T10:35:31.241Z,70.1
2018-03-18T10:36:32.631Z,70.4
2018-03-18T10:37:34.020Z,69.7
2018-03-18T10:38:35.411Z,69.8
2018-03-18T10:39:36.835Z,69.8
2018-03-18T10:40:38.193Z,69.6
2018-03-18T10:41:39.579Z,69.6
2018-03-18T10:42:40.966Z,69.8
2018-03-18T10:43:42.351Z,70.4
2018-03-18T10:44:43.740Z,69.4
2018-03-18T10:45:45.142Z,68.9
2018-03-18T10:46:46.531Z,68.5
2018-03-18T10:47:47.917Z,68.5
2018-03-18T10:48:49.315Z,69.5
2018-03-18T10:49:50.777Z,70.3
2018-03-18T10:50:52.200Z,70.8
2018-03-18T10:51:53.588Z,69.2
2018-03-18T10:52:54.985Z,68.8
2018-03-18T10:53:56.388Z,68.7
2018-03-18T10:54:57.783Z,68.6
2018-03-18T10:55:59.168Z,68.6
2018-03-18T10:57:00.564Z,68.6
2018-03-18T10:58:01.956Z,68.3
2018-03-18T10:59:03.670Z,69.1
2018-03-18T11:00:05.059Z,69.1
2018-03-18T11:01:06.449Z,69.4
2018-03-18T11:02:07.842Z,69.4
2018-03-18T11:03:09.230Z,69.3
2018-03-18T11:04:10.657Z,69.7
2018-03-18T11:05:12.092Z,69.6
2018-03-18T11:06:13.486Z,69.9
2018-03-18T11:07:14.873Z,70.4
2018-03-18T11:08:16.264Z,70.0
2018-03-18T11:09:17.652Z,70.8
2018-03-18T11:10:19.039Z,70.5
2018-03-18T11:11:20.424Z,70.7
2018-03-18T11:12:21.810Z,70.3
2018-03-18T11:13:23.198Z,70.4
2018-03-18T11:14:24.632Z,70.4
2018-03-18T11:15:25.981Z,70.8
2018-03-18T11:16:27.764Z,71.1
2018-03-18T11:17:29.148Z,71.1
2018-03-18T11:18:30.535Z,70.9
2018-03-18T11:19:31.922Z,70.8
2018-03-18T11:20:33.309Z,70.7
2018-03-18T11:21:34.694Z,70.9
2018-03-18T11:22:36.085Z,71.0
2018-03-18T11:23:37.473Z,70.4
2018-03-18T11:24:38.860Z,70.7
2018-03-18T11:25:40.245Z,70.9
2018-03-18T11:26:41.639Z,71.1
2018-03-18T11:27:43.086Z,70.7
2018-03-18T11:28:44.482Z,70.7
2018-03-18T11:29:45.880Z,70.8
2018-03-18T11:30:47.263Z,69.4
2018-03-18T11:31:48.654Z,69.1
2018-03-18T11:32:50.037Z,68.6
2018-03-18T11:33:51.420Z,68.4
2018-03-18T11:34:52.808Z,67.8
2018-03-18T11:35:54.242Z,66.4
2018-03-18T11:36:55.628Z,65.1
2018-03-18T11:37:57.017Z,65.0
2018-03-18T11:38:58.409Z,65.6
2018-03-18T11:40:00.792Z,65.1
2018-03-18T11:41:02.319Z,64.9
2018-03-18T11:42:03.713Z,64.9
2018-03-18T11:43:05.109Z,64.9
2018-03-18T11:44:06.506Z,65.4
2018-03-18T11:45:07.899Z,65.2
2018-03-18T11:46:09.281Z,65.9
2018-03-18T11:47:10.732Z,64.7
2018-03-18T11:48:12.120Z,65.5
2018-03-18T11:49:13.509Z,65.3
2018-03-18T11:50:14.895Z,65.3
2018-03-18T11:51:16.303Z,65.3
2018-03-18T11:52:17.693Z,66.0
2018-03-18T11:53:19.080Z,66.8
2018-03-18T11:54:21.149Z,66.4
2018-03-18T11:55:22.488Z,67.6
2018-03-18T11:56:23.882Z,66.6
2018-03-18T11:57:25.279Z,66.7
2018-03-18T11:58:26.661Z,65.7
2018-03-18T11:59:28.069Z,65.3
2018-03-18T12:00:29.449Z,65.3
2018-03-18T12:01:30.847Z,65.4
2018-03-18T12:02:32.240Z,65.4
2018-03-18T12:03:33.669Z,65.5
2018-03-18T12:04:35.065Z,66.6
2018-03-18T12:05:36.464Z,66.4
2018-03-18T12:06:37.854Z,65.5
2018-03-18T12:07:39.242Z,65.3
2018-03-18T12:08:40.636Z,66.0
2018-03-18T12:09:42.022Z,65.4
2018-03-18T12:10:43.443Z,65.2
2018-03-18T12:11:44.856Z,64.9
2018-03-18T12:12:46.248Z,64.7
2018-03-18T12:13:47.641Z,64.8
2018-03-18T12:14:49.056Z,64.2
2018-03-18T12:15:50.447Z,64.0
2018-03-18T12:16:51.833Z,64.3
2018-03-18T12:17:53.223Z,64.2
2018-03-18T12:18:54.609Z,64.2
2018-03-18T12:19:56.213Z,64.0
2018-03-18T12:20:57.605Z,64.3
2018-03-18T12:21:58.990Z,64.0
2018-03-18T12:23:00.378Z,63.2
2018-03-18T12:24:01.765Z,62.5
2018-03-18T12:25:03.154Z,61.7
2018-03-18T12:26:04.547Z,62.5
2018-03-18T12:27:05.930Z,62.5
2018-03-18T12:28:07.358Z,62.0
2018-03-18T12:29:08.711Z,61.8
2018-03-18T12:30:10.095Z,61.7
2018-03-18T12:31:11.488Z,61.4
2018-03-18T12:32:12.872Z,61.8
2018-03-18T12:33:14.283Z,61.7
2018-03-18T12:34:15.719Z,61.6
2018-03-18T12:35:17.115Z,62.2
2018-03-18T12:36:18.498Z,63.1
2018-03-18T12:37:19.895Z,62.3
2018-03-18T12:38:21.283Z,61.0
2018-03-18T12:39:22.683Z,60.5
2018-03-18T12:40:24.073Z,60.4
2018-03-18T12:41:25.459Z,60.4
2018-03-18T12:42:26.854Z,60.9
2018-03-18T12:43:28.235Z,61.0
2018-03-18T12:44:29.622Z,60.4
2018-03-18T12:45:31.009Z,60.1
2018-03-18T12:46:32.397Z,60.7
2018-03-18T12:47:33.782Z,60.4
2018-03-18T12:48:35.189Z,59.9
2018-03-18T12:49:36.576Z,59.8
2018-03-18T12:50:37.982Z,59.1
2018-03-18T12:51:39.365Z,59.1
2018-03-18T12:52:40.755Z,59.5
2018-03-18T12:53:42.141Z,60.0
2018-03-18T12:54:43.559Z,59.3
2018-03-18T12:55:44.879Z,59.4
2018-03-18T12:56:46.273Z,59.4
2018-03-18T12:57:47.663Z,59.9
2018-03-18T12:58:49.269Z,60.2
2018-03-18T12:59:50.749Z,60.0
2018-03-18T13:00:52.138Z,59.4
2018-03-18T13:01:53.533Z,59.0
2018-03-18T13:02:54.921Z,58.3
2018-03-18T13:03:56.310Z,57.9
2018-03-18T13:04:57.698Z,57.6
2018-03-18T13:05:59.112Z,57.6
2018-03-18T13:07:00.472Z,57.3
2018-03-18T13:08:01.858Z,56.6
2018-03-18T13:09:03.248Z,56.6
2018-03-18T13:10:04.643Z,56.2
2018-03-18T13:11:06.028Z,55.9
2018-03-18T13:12:07.414Z,56.1
2018-03-18T13:13:08.804Z,56.0
2018-03-18T13:14:10.201Z,56.2
2018-03-18T13:15:11.587Z,56.6
2018-03-18T13:16:12.975Z,56.6
2018-03-18T13:17:14.363Z,56.0
2018-03-18T13:18:15.759Z,56.1
2018-03-18T13:19:17.145Z,56.4
2018-03-18T13:20:18.533Z,56.2
2018-03-18T13:21:19.920Z,55.9
2018-03-18T13:22:21.309Z,56.2
2018-03-18T13:23:22.815Z,56.0
2018-03-18T13:24:24.276Z,56.3
2018-03-18T13:25:25.670Z,56.7
2018-03-18T13:26:27.060Z,56.8
2018-03-18T13:27:28.449Z,56.7
2018-03-18T13:28:29.842Z,56.4
2018-03-18T13:29:31.455Z,56.1
2018-03-18T13:30:32.843Z,56.1
2018-03-18T13:31:34.238Z,55.4
2018-03-18T13:32:35.625Z,55.3
2018-03-18T13:33:37.017Z,55.5
2018-03-18T13:34:38.403Z,55.0
2018-03-18T13:35:39.796Z,55.2
2018-03-18T13:36:41.187Z,55.1